Time;durP1;ratioP1;P1;durP2;ratioP2;P2;SDS_P1;SDS_P2;PMS_P1;PMS_P2;Temp;Humidity;BMP_temperature;BMP_pressure;BME280_temperature;BME280_humidity;BME280_pressure;Samples;Min_cycle;Max_cycle;Signal;HPM_P1;HPM_P2
2024/04/26 00:00:05;;;;;;;;;14.50;13.00;;;;;12.48;49.96;100156.94;2106939;26;2781753;-68
2024/04/26 00:01:19;;;;;;;;;7.00;7.00;;;;;12.46;49.53;100157.94;2107168;26;2477241;-68
2024/04/26 00:02:32;;;;;;;;;12.00;11.50;;;;;12.44;50.10;100157.16;2093665;26;2790226;-68
2024/04/26 00:03:43;;;;;;;;;10.67;10.67;;;;;12.38;50.68;100148.63;2082819;26;3509562;-68
2024/04/26 00:04:54;;;;;;;;;10.33;10.33;;;;;12.36;50.37;100139.09;2107448;26;3488740;-68
2024/04/26 00:06:08;;;;;;;;;4.17;2.50;;;;;12.35;50.40;100151.41;2136740;26;2741880;-68
2024/04/26 00:07:20;;;;;;;;;11.75;11.75;;;;;12.31;50.48;100147.25;2122294;26;1841973;-68
2024/04/26 00:08:31;;;;;;;;;14.00;14.00;;;;;12.32;49.99;100151.56;2106183;27;2794991;-68
2024/04/26 00:09:46;;;;;;;;;14.14;12.86;;;;;12.27;50.49;100151.78;2128014;27;1819007;-67
2024/04/26 00:10:57;;;;;;;;;11.00;10.00;;;;;12.24;50.39;100145.84;2104169;26;2784564;-68
2024/04/26 00:12:08;;;;;;;;;12.50;9.50;;;;;12.23;50.60;100139.72;2107035;26;2775251;-68
2024/04/26 00:13:19;;;;;;;;;13.00;9.00;;;;;12.18;50.33;100143.50;2105468;26;2775200;-67
2024/04/26 00:14:32;;;;;;;;;12.50;9.50;;;;;12.21;51.02;100148.63;2106045;27;2768962;-67
2024/04/26 00:15:43;;;;;;;;;12.00;11.00;;;;;12.18;50.91;100141.72;2105278;27;3513735;-68
2024/04/26 00:16:54;;;;;;;;;15.50;13.50;;;;;12.18;50.86;100140.84;2104799;26;2789823;-68
2024/04/26 00:18:09;;;;;;;;;17.29;14.43;;;;;12.13;50.41;100141.09;2139689;27;1821134;-68
2024/04/26 00:19:20;;;;;;;;;13.50;11.50;;;;;12.14;50.99;100146.31;2105184;27;2800215;-67
2024/04/26 00:20:32;;;;;;;;;16.50;12.00;;;;;12.11;50.97;100138.50;2105264;27;2799159;-68
2024/04/26 00:21:43;;;;;;;;;18.00;13.00;;;;;12.11;50.81;100140.28;2081875;26;2812781;-68
2024/04/26 00:22:55;;;;;;;;;15.00;12.75;;;;;12.05;51.21;100136.16;2118380;27;1846615;-68
2024/04/26 00:24:07;;;;;;;;;13.00;11.00;;;;;12.02;50.73;100133.69;2104768;26;2793972;-67
2024/04/26 00:25:18;;;;;;;;;13.50;13.00;;;;;12.05;51.36;100146.69;2106945;26;2792122;-68
2024/04/26 00:26:29;;;;;;;;;16.50;13.50;;;;;12.01;51.02;100137.25;2106388;26;2812719;-68
2024/04/26 00:27:40;;;;;;;;;13.33;12.67;;;;;12.00;51.11;100138.19;2080583;26;3512640;-67
2024/04/26 00:28:51;;;;;;;;;12.50;11.50;;;;;11.95;51.18;100135.75;2082949;26;2793972;-68
2024/04/26 00:30:02;;;;;;;;;15.50;13.00;;;;;11.96;50.79;100137.47;2104382;26;2802358;-67
2024/04/26 00:31:18;;;;;;;;;17.00;12.50;;;;;11.94;51.22;100139.34;2080794;26;2809627;-68
2024/04/26 00:32:29;;;;;;;;;17.00;12.00;;;;;11.93;50.87;100143.75;2082648;27;2816937;-67
2024/04/26 00:33:41;;;;;;;;;13.50;12.50;;;;;11.95;51.84;100140.19;2119884;26;1848098;-68
2024/04/26 00:34:52;;;;;;;;;10.67;10.67;;;;;11.90;51.89;100141.25;2107446;26;3499146;-68
2024/04/26 00:36:03;;;;;;;;;12.67;9.67;;;;;11.87;51.34;100138.78;2107087;26;3497127;-67
2024/04/26 00:37:14;;;;;;;;;17.00;11.00;;;;;11.89;50.78;100144.81;2104170;27;2791894;-68
2024/04/26 00:38:27;;;;;;;;;14.00;12.60;;;;;11.88;51.87;100144.88;2125988;27;2788722;-67
2024/04/26 00:39:39;;;;;;;;;17.00;15.00;;;;;11.82;51.49;100131.09;2080270;26;2818977;-67
2024/04/26 00:40:50;;;;;;;;;12.00;10.50;;;;;11.83;51.67;100145.09;2080194;26;2777283;-68
2024/04/26 00:42:02;;;;;;;;;10.00;10.00;;;;;11.81;51.91;100133.78;2107121;27;3505376;-68
2024/04/26 00:43:14;;;;;;;;;14.25;12.00;;;;;11.77;52.23;100133.09;2118710;27;1836712;-67
2024/04/26 00:44:25;;;;;;;;;13.00;13.00;;;;;11.77;51.97;100132.25;2104641;27;2794020;-68
2024/04/26 00:45:36;;;;;;;;;15.00;12.50;;;;;11.75;52.31;100129.69;2079125;26;2802267;-68
2024/04/26 00:46:50;;;;;;;;;17.50;14.00;;;;;11.73;52.54;100131.53;2080273;27;2814774;-68
2024/04/26 00:48:04;;;;;;;;;13.67;12.50;;;;;11.69;52.16;100129.97;2112790;27;1827461;-68
2024/04/26 00:49:17;;;;;;;;;17.00;15.33;;;;;11.67;52.59;100126.56;2113361;26;1828347;-68
2024/04/26 00:50:28;;;;;;;;;16.00;14.67;;;;;11.67;52.60;100130.06;2080535;26;3538714;-67
2024/04/26 00:51:47;;;;;;;;;17.67;14.33;;;;;11.66;52.02;100130.97;2112378;26;1831476;-68
2024/04/26 00:52:59;;;;;;;;;13.75;12.25;;;;;11.63;52.68;100127.66;2095880;26;1840327;-67
2024/04/26 00:54:10;;;;;;;;;13.50;13.00;;;;;11.62;53.29;100133.81;2099218;27;2800234;-67
2024/04/26 00:55:21;;;;;;;;;17.00;14.00;;;;;11.56;52.88;100124.44;2079971;26;2812682;-68
2024/04/26 00:56:34;;;;;;;;;20.50;18.50;;;;;11.39;53.64;100101.53;2083562;26;2834542;-68
2024/04/26 00:57:45;;;;;;;;;23.50;20.50;;;;;11.55;53.12;100130.63;2085902;27;2842909;-67
2024/04/26 00:58:58;;;;;;;;;19.20;17.00;;;;;11.53;52.77;100125.44;2100296;26;2833476;-68
2024/04/26 01:00:11;;;;;;;;;23.33;20.67;;;;;11.52;53.67;100134.25;2078723;27;3587668;-67
2024/04/26 01:01:23;;;;;;;;;24.00;18.50;;;;;11.48;53.42;100128.28;2106418;27;2825258;-67
2024/04/26 01:02:38;;;;;;;;;22.00;19.00;;;;;11.45;53.60;100124.94;2104438;27;3584593;-67
2024/04/26 01:03:50;;;;;;;;;20.33;18.67;;;;;11.40;53.63;100119.91;2104526;26;2839788;-68
2024/04/26 01:05:03;;;;;;;;;22.00;18.00;;;;;11.40;53.78;100126.94;2104896;27;3558798;-68
2024/04/26 01:06:14;;;;;;;;;19.67;17.67;;;;;11.36;53.34;100124.44;2104649;26;3566903;-68
2024/04/26 01:07:26;;;;;;;;;18.33;18.33;;;;;11.34;53.44;100120.16;2105177;27;3568942;-68
2024/04/26 01:08:38;;;;;;;;;18.00;17.00;;;;;11.34;53.70;100128.06;2103590;26;2827314;-67
2024/04/26 01:09:50;;;;;;;;;20.67;18.00;;;;;11.29;53.94;100117.75;2078941;26;3575588;-68
2024/04/26 01:11:04;;;;;;;;;22.17;20.33;;;;;11.27;53.39;100116.97;2124118;26;2852695;-67
2024/04/26 01:12:16;;;;;;;;;22.67;19.33;;;;;11.27;53.44;100116.13;2106937;26;3584520;-68
2024/04/26 01:13:27;;;;;;;;;17.00;17.00;;;;;11.21;54.30;100115.47;2104211;27;2824496;-67
2024/04/26 01:14:40;;;;;;;;;16.20;16.00;;;;;11.19;54.03;100117.31;2097909;26;2812775;-68
2024/04/26 01:15:52;;;;;;;;;22.67;19.67;;;;;11.14;54.22;100114.91;2079995;26;3586599;-68
2024/04/26 01:17:05;;;;;;;;;18.60;17.20;;;;;11.14;54.30;100124.56;2123266;26;2835595;-68
2024/04/26 01:18:17;;;;;;;;;22.00;18.00;;;;;11.12;53.73;100121.16;2080244;26;3576305;-67
2024/04/26 01:19:29;;;;;;;;;25.00;21.00;;;;;11.12;54.56;100115.91;2105412;26;3587720;-68
2024/04/26 01:20:40;;;;;;;;;25.00;20.00;;;;;11.10;54.84;100115.13;2104798;26;2838739;-68
2024/04/26 01:22:02;;;;;;;;;22.33;18.33;;;;;11.04;55.08;100108.34;2078722;27;3585541;-67
2024/04/26 01:23:14;;;;;;;;;22.67;19.33;;;;;11.06;54.41;100116.19;2104909;27;3576209;-68
2024/04/26 01:24:27;;;;;;;;;21.80;19.40;;;;;11.06;55.13;100121.44;2124335;26;2845999;-68
2024/04/26 01:25:39;;;;;;;;;23.67;18.67;;;;;11.02;54.54;100110.19;2080425;26;3595246;-68
2024/04/26 01:26:51;;;;;;;;;22.67;19.00;;;;;11.04;54.42;100121.50;2105085;26;3585608;-67
2024/04/26 01:28:03;;;;;;;;;16.00;15.00;;;;;11.01;54.47;100111.13;2104349;26;2806464;-68
2024/04/26 01:29:18;;;;;;;;;22.80;20.40;;;;;10.99;54.10;100112.97;2102070;26;2849144;-68
2024/04/26 01:30:30;;;;;;;;;23.00;20.67;;;;;10.98;55.05;100106.88;2082389;26;3590752;-68
2024/04/26 01:31:41;;;;;;;;;21.50;20.50;;;;;10.91;54.01;100102.81;2104551;26;2841932;-68
2024/04/26 01:32:53;;;;;;;;;21.67;19.67;;;;;10.92;54.96;100104.50;2081109;26;3598029;-68
2024/04/26 01:34:04;;;;;;;;;23.50;21.00;;;;;10.94;54.81;100118.44;2110599;26;2841817;-68
2024/04/26 01:35:15;;;;;;;;;25.00;22.50;;;;;10.86;54.62;100104.78;2085908;27;2853303;-67
2024/04/26 01:36:27;;;;;;;;;26.67;23.00;;;;;10.88;54.94;100121.34;2082048;26;3598117;-68
2024/04/26 01:37:39;;;;;;;;;22.33;20.67;;;;;10.88;54.60;100113.47;2080634;26;3581453;-68
2024/04/26 01:38:51;;;;;;;;;21.67;18.00;;;;;10.89;54.79;100125.69;2103551;26;3586718;-67
2024/04/26 01:40:03;;;;;;;;;28.00;23.33;;;;;10.88;55.56;100126.59;2104435;26;3605454;-67
2024/04/26 01:41:15;;;;;;;;;22.67;21.67;;;;;10.86;55.61;100125.81;2107326;26;3584580;-67
2024/04/26 01:42:30;;;;;;;;;23.33;21.00;;;;;10.82;54.73;100122.47;2105728;26;3586948;-68
2024/04/26 01:43:42;;;;;;;;;28.67;19.67;;;;;10.83;56.10;100128.56;2104644;27;3597043;-68
2024/04/26 01:44:57;;;;;;;;;25.86;21.29;;;;;10.77;55.63;100121.81;2136567;27;1842018;-67
2024/04/26 01:46:08;;;;;;;;;20.00;18.00;;;;;10.78;55.28;100124.38;2107969;26;2837211;-68
2024/04/26 01:47:22;;;;;;;;;22.71;17.71;;;;;10.77;55.80;100122.66;2136285;26;1845050;-68
2024/04/26 01:48:34;;;;;;;;;27.00;20.00;;;;;10.77;55.29;100124.44;2104964;26;3589739;-67
2024/04/26 01:49:45;;;;;;;;;18.50;17.50;;;;;10.74;55.84;100128.03;2105833;26;2818976;-68
2024/04/26 01:50:57;;;;;;;;;20.67;18.33;;;;;10.72;55.88;100121.19;2080098;26;3573065;-67
2024/04/26 01:52:08;;;;;;;;;22.00;20.00;;;;;10.71;55.21;100129.97;2103990;27;2824161;-68
2024/04/26 01:53:19;;;;;;;;;17.00;16.00;;;;;10.67;55.16;100122.22;2082986;26;2821040;-68
2024/04/26 01:54:34;;;;;;;;;24.29;22.29;;;;;10.66;56.49;100122.28;2112091;26;1831504;-68
2024/04/26 01:55:46;;;;;;;;;26.33;19.33;;;;;10.63;56.37;100119.78;2105715;26;3591300;-68
2024/04/26 01:56:58;;;;;;;;;25.00;22.00;;;;;10.64;55.44;100126.75;2107188;26;3594994;-67
2024/04/26 01:58:10;;;;;;;;;19.00;18.00;;;;;10.63;56.54;100128.53;2079968;27;3575264;-67
2024/04/26 01:59:22;;;;;;;;;21.00;20.00;;;;;10.60;55.83;100119.91;2105865;26;3572031;-68
2024/04/26 02:00:36;;;;;;;;;20.33;16.00;;;;;10.61;56.24;100124.25;2136114;26;1840348;-67
2024/04/26 02:01:48;;;;;;;;;24.67;18.67;;;;;10.57;55.93;100119.13;2081773;27;3585631;-67
2024/04/26 02:03:00;;;;;;;;;24.67;19.33;;;;;10.55;56.26;100110.47;2105851;26;3590823;-68
2024/04/26 02:04:12;;;;;;;;;22.67;19.33;;;;;10.54;56.08;100119.25;2105927;26;3581406;-68
2024/04/26 02:05:24;;;;;;;;;26.00;20.33;;;;;10.54;56.66;100123.66;2105481;26;3585679;-68
2024/04/26 02:06:35;;;;;;;;;23.00;19.00;;;;;10.51;57.08;100116.78;2106626;27;2836036;-67
2024/04/26 02:07:47;;;;;;;;;21.67;20.00;;;;;10.52;56.24;100121.09;2104559;26;3589786;-68
2024/04/26 02:09:01;;;;;;;;;20.00;13.67;;;;;10.50;56.77;100120.28;2135436;26;1832585;-68
2024/04/26 02:10:13;;;;;;;;;25.00;22.33;;;;;10.51;57.01;100114.16;2082001;26;3595027;-68
2024/04/26 02:11:27;;;;;;;;;23.33;21.67;;;;;10.51;56.57;100115.91;2106050;26;3586621;-68
2024/04/26 02:12:39;;;;;;;;;20.00;17.67;;;;;10.50;56.93;100116.78;2106737;26;2824255;-67
2024/04/26 02:13:51;;;;;;;;;20.67;20.33;;;;;10.50;56.98;100117.66;2106585;26;3578342;-67
2024/04/26 02:15:03;;;;;;;;;20.67;18.33;;;;;10.49;56.95;100115.97;2106281;26;3568954;-68
2024/04/26 02:16:14;;;;;;;;;18.50;18.00;;;;;10.49;57.14;100115.97;2107199;26;2832561;-67
2024/04/26 02:17:25;;;;;;;;;16.00;16.00;;;;;10.47;56.50;100108.13;2103204;26;2824165;-68
2024/04/26 02:18:39;;;;;;;;;21.43;20.71;;;;;10.50;57.48;100114.16;2111476;26;1844049;-67
2024/04/26 02:19:52;;;;;;;;;19.80;17.20;;;;;10.50;57.10;100109.75;2127514;26;2829317;-68
2024/04/26 02:21:07;;;;;;;;;24.33;20.33;;;;;10.51;57.11;100114.16;2080317;26;3574115;-67
2024/04/26 02:22:19;;;;;;;;;21.33;18.33;;;;;10.50;57.32;100112.38;2107493;26;3571041;-67
2024/04/26 02:23:30;;;;;;;;;17.00;14.00;;;;;10.52;57.53;100117.63;2104091;26;2805388;-68
2024/04/26 02:24:42;;;;;;;;;22.33;17.67;;;;;10.52;56.90;100115.00;2082036;26;3576465;-68
2024/04/26 02:25:53;;;;;;;;;17.50;17.50;;;;;10.49;57.13;100110.69;2104229;26;2835603;-68
2024/04/26 02:27:05;;;;;;;;;20.67;19.00;;;;;10.51;57.65;100111.50;2080730;26;3565750;-68
2024/04/26 02:28:17;;;;;;;;;21.00;20.33;;;;;10.50;57.17;100114.16;2104685;26;3568969;-67
2024/04/26 02:29:29;;;;;;;;;19.67;18.33;;;;;10.50;57.46;100111.53;2103997;26;3571013;-67
2024/04/26 02:30:41;;;;;;;;;19.67;18.00;;;;;10.52;57.20;100118.47;2105498;26;3564779;-68
2024/04/26 02:31:53;;;;;;;;;22.67;18.33;;;;;10.51;57.60;100113.28;2106697;27;3573092;-67
2024/04/26 02:33:05;;;;;;;;;18.33;16.00;;;;;10.51;57.17;100116.78;2105759;26;2824252;-68
2024/04/26 02:34:18;;;;;;;;;19.60;19.60;;;;;10.52;58.16;100115.84;2124688;26;2839778;-68
2024/04/26 02:35:30;;;;;;;;;22.00;16.67;;;;;10.52;57.71;100115.84;2080794;26;3567964;-67
2024/04/26 02:36:45;;;;;;;;;20.00;19.00;;;;;10.53;57.73;100120.19;2105321;26;3579323;-67
2024/04/26 02:37:56;;;;;;;;;19.50;19.50;;;;;10.52;57.76;100118.47;2105602;26;2843947;-67
2024/04/26 02:39:08;;;;;;;;;21.00;19.00;;;;;10.53;57.41;100116.69;2079613;26;2829421;-67
2024/04/26 02:40:20;;;;;;;;;18.00;17.00;;;;;10.51;57.06;100113.28;2103472;26;3567905;-67
2024/04/26 02:41:32;;;;;;;;;19.00;17.00;;;;;10.51;57.21;100113.28;2108072;26;3575192;-67
2024/04/26 02:42:44;;;;;;;;;22.67;17.33;;;;;10.49;58.14;100113.34;2105214;26;3574119;-68
2024/04/26 02:43:56;;;;;;;;;20.33;19.00;;;;;10.47;57.12;100113.38;2105825;26;3574143;-68
2024/04/26 02:45:08;;;;;;;;;20.00;20.00;;;;;10.48;58.13;100111.59;2105627;26;3581458;-67
2024/04/26 02:46:20;;;;;;;;;21.33;17.33;;;;;10.51;57.82;100110.66;2107382;26;3568950;-68
2024/04/26 02:47:32;;;;;;;;;27.33;20.33;;;;;10.49;58.11;100113.34;2105222;26;3583517;-67
2024/04/26 02:48:44;;;;;;;;;18.67;16.67;;;;;10.50;57.08;100115.03;2106000;26;3566843;-68
2024/04/26 02:49:58;;;;;;;;;19.71;17.57;;;;;10.46;57.89;100109.06;2136778;26;1824204;-67
2024/04/26 02:51:11;;;;;;;;;21.00;16.67;;;;;10.41;57.81;100095.25;2105555;26;2825328;-68
2024/04/26 02:52:24;;;;;;;;;22.20;19.20;;;;;10.44;57.54;100104.78;2125511;27;2839095;-67
2024/04/26 02:53:36;;;;;;;;;20.67;18.33;;;;;10.47;57.85;100109.88;2081574;26;3569956;-68
2024/04/26 02:54:47;;;;;;;;;18.00;18.00;;;;;10.45;57.42;100111.72;2105335;26;2819097;-67
2024/04/26 02:55:58;;;;;;;;;17.50;16.50;;;;;10.39;57.85;100101.50;2079626;27;2826260;-68
2024/04/26 02:57:10;;;;;;;;;19.00;17.00;;;;;10.42;58.29;100104.00;2080480;26;2830448;-68
2024/04/26 02:58:22;;;;;;;;;18.00;15.50;;;;;10.41;57.83;100105.78;2082090;26;2823123;-68
2024/04/26 02:59:33;;;;;;;;;20.00;17.50;;;;;10.43;58.30;100110.94;2081020;26;2830379;-68
2024/04/26 03:00:44;;;;;;;;;20.00;17.00;;;;;10.41;58.77;100110.16;2079597;26;2829364;-68
2024/04/26 03:01:55;;;;;;;;;17.00;17.00;;;;;10.40;58.56;100109.31;2081288;27;2827249;-67
2024/04/26 03:03:08;;;;;;;;;20.00;18.20;;;;;10.35;58.67;100104.25;2100072;27;2833534;-68
2024/04/26 03:04:19;;;;;;;;;17.50;17.00;;;;;10.41;58.00;100115.41;2080510;27;2822097;-67
2024/04/26 03:05:30;;;;;;;;;20.50;12.00;;;;;10.39;58.45;100110.25;2080992;26;2817891;-67
2024/04/26 03:06:43;;;;;;;;;19.33;15.33;;;;;10.40;58.24;100113.69;2081330;27;3544995;-68
2024/04/26 03:07:54;;;;;;;;;17.00;15.00;;;;;10.39;58.23;100118.13;2107068;27;2809646;-67
2024/04/26 03:09:07;;;;;;;;;23.00;19.00;;;;;10.35;58.08;100106.00;2079386;26;2843930;-67
2024/04/26 03:10:21;;;;;;;;;17.00;16.86;;;;;10.36;58.17;100113.00;2137071;26;1839870;-67
2024/04/26 03:11:34;;;;;;;;;18.20;16.80;;;;;10.34;58.85;100115.69;2127816;26;2827227;-68
2024/04/26 03:12:46;;;;;;;;;19.33;17.00;;;;;10.32;57.69;100119.31;2080831;26;3561759;-68
2024/04/26 03:13:58;;;;;;;;;25.00;19.00;;;;;10.23;57.83;100107.38;2105184;26;3574154;-68
2024/04/26 03:15:12;;;;;;;;;15.83;14.33;;;;;10.24;58.01;100115.22;2137608;26;1829421;-68
2024/04/26 03:16:25;;;;;;;;;18.80;18.80;;;;;10.28;58.33;100115.06;2102139;26;2839737;-68
2024/04/26 03:17:41;;;;;;;;;16.71;14.29;;;;;10.22;57.81;100111.78;2114164;26;1828928;-67
2024/04/26 03:18:52;;;;;;;;;23.50;19.00;;;;;10.20;58.25;100105.75;2105764;26;2827286;-67
2024/04/26 03:20:03;;;;;;;;;19.50;16.00;;;;;10.21;58.40;100115.34;2080730;26;2802306;-68
2024/04/26 03:21:14;;;;;;;;;22.50;19.50;;;;;10.20;58.15;100118.00;2079336;26;2841857;-67
2024/04/26 03:22:25;;;;;;;;;20.00;18.50;;;;;10.21;59.05;100119.72;2080214;26;2837925;-68
2024/04/26 03:23:38;;;;;;;;;22.60;19.60;;;;;10.20;59.22;100116.25;2100307;27;2848090;-68
2024/04/26 03:24:49;;;;;;;;;19.00;17.00;;;;;10.18;58.26;100115.47;2085682;27;2830382;-68
2024/04/26 03:26:09;;;;;;;;;17.29;16.29;;;;;10.19;59.06;100111.94;2110483;26;1836724;-68
2024/04/26 03:27:21;;;;;;;;;20.67;17.33;;;;;10.17;58.95;100119.03;2104971;27;3559571;-68
2024/04/26 03:28:33;;;;;;;;;21.33;17.33;;;;;10.18;58.42;100119.84;2104039;26;3574146;-68
2024/04/26 03:29:47;;;;;;;;;17.67;15.00;;;;;10.16;58.34;100124.31;2139152;27;1835653;-68
2024/04/26 03:30:58;;;;;;;;;17.00;16.00;;;;;10.12;58.05;100111.31;2105393;26;2818971;-67
2024/04/26 03:32:09;;;;;;;;;17.50;13.50;;;;;10.08;59.07;100109.72;2080589;26;2813721;-68
2024/04/26 03:33:21;;;;;;;;;25.67;20.33;;;;;10.09;58.18;100119.34;2081170;26;3582516;-68
2024/04/26 03:34:33;;;;;;;;;18.33;17.67;;;;;10.10;58.24;100118.41;2105647;26;2831993;-68
2024/04/26 03:35:45;;;;;;;;;16.67;16.00;;;;;10.05;58.67;100115.09;2106507;26;2812888;-67
2024/04/26 03:36:59;;;;;;;;;18.33;15.83;;;;;10.05;59.27;100120.34;2138710;27;1838799;-67
2024/04/26 03:38:11;;;;;;;;;20.33;18.67;;;;;10.07;59.54;100121.16;2079754;26;3574183;-68
2024/04/26 03:39:22;;;;;;;;;16.50;15.00;;;;;10.06;58.69;100115.97;2105916;27;2814782;-67
2024/04/26 03:40:37;;;;;;;;;24.00;19.14;;;;;10.04;59.28;100108.16;2108264;26;1839821;-68
2024/04/26 03:41:49;;;;;;;;;20.67;18.00;;;;;10.03;59.75;100106.44;2105359;26;3575192;-67
2024/04/26 03:43:03;;;;;;;;;22.60;18.40;;;;;10.05;59.42;100114.28;2127210;27;2834545;-67
2024/04/26 03:44:17;;;;;;;;;21.00;18.29;;;;;10.04;58.80;100120.44;2112993;27;1839785;-68
2024/04/26 03:45:28;;;;;;;;;17.50;17.00;;;;;10.04;59.45;100118.66;2106261;27;2814821;-68
2024/04/26 03:46:43;;;;;;;;;19.57;16.00;;;;;10.03;59.42;100111.69;2110156;26;1839821;-68
2024/04/26 03:47:55;;;;;;;;;20.00;18.00;;;;;9.95;59.58;100104.13;2106896;26;3567933;-68
2024/04/26 03:49:07;;;;;;;;;18.33;17.33;;;;;10.00;59.72;100114.47;2105330;26;3565043;-68
2024/04/26 03:50:21;;;;;;;;;18.50;16.17;;;;;10.00;59.84;100112.66;2137387;27;1825250;-68
2024/04/26 03:51:35;;;;;;;;;17.00;15.00;;;;;9.98;59.11;100111.03;2114386;26;1832605;-68
2024/04/26 03:52:48;;;;;;;;;20.67;15.83;;;;;10.00;59.96;100114.47;2112743;26;1831698;-68
2024/04/26 03:54:00;;;;;;;;;20.50;20.00;;;;;9.99;59.59;100110.13;2095625;26;1861801;-68
2024/04/26 03:55:12;;;;;;;;;18.33;15.00;;;;;9.99;58.99;100113.59;2104190;27;2827352;-68
2024/04/26 03:56:24;;;;;;;;;21.00;19.33;;;;;9.99;59.93;100118.84;2105721;26;3577270;-68
2024/04/26 03:57:35;;;;;;;;;18.00;17.00;;;;;9.96;59.28;100110.22;2090553;27;2820015;-67
2024/04/26 03:58:46;;;;;;;;;16.00;14.50;;;;;9.94;59.67;100104.19;2067156;27;2814795;-68
2024/04/26 03:59:58;;;;;;;;;19.67;17.33;;;;;9.97;59.87;100111.94;2080386;26;2825303;-68
2024/04/26 04:01:10;;;;;;;;;20.00;17.00;;;;;9.96;60.05;100110.22;2105150;26;2831452;-68
2024/04/26 04:02:24;;;;;;;;;20.17;18.00;;;;;9.92;59.01;100109.50;2111078;26;1846067;-68
2024/04/26 04:03:35;;;;;;;;;14.50;13.00;;;;;9.92;59.20;100113.91;2080560;27;2791873;-67
2024/04/26 04:04:46;;;;;;;;;16.50;13.50;;;;;9.93;59.33;100112.97;2104539;27;2800732;-68
2024/04/26 04:05:57;;;;;;;;;18.50;17.50;;;;;9.92;60.29;100116.53;2078688;26;2828416;-68
2024/04/26 04:07:08;;;;;;;;;19.00;17.50;;;;;9.89;59.82;100105.25;2080586;26;2829379;-68
2024/04/26 04:08:22;;;;;;;;;6.50;6.50;;;;;9.89;59.36;100115.75;2107779;26;2750194;-68
2024/04/26 04:09:34;;;;;;;;;21.00;18.00;;;;;9.88;60.09;100113.16;2082680;26;3559561;-68
2024/04/26 04:10:48;;;;;;;;;17.33;16.67;;;;;9.83;60.06;100105.47;2138167;26;1820023;-68
2024/04/26 04:12:02;;;;;;;;;17.67;15.00;;;;;9.84;59.22;100107.19;2112513;26;1827404;-68
2024/04/26 04:13:19;;;;;;;;;17.80;17.00;;;;;9.85;59.57;100115.94;2102542;26;2837681;-68
2024/04/26 04:14:30;;;;;;;;;17.50;16.00;;;;;9.83;60.28;100107.28;2079538;27;2835595;-67
2024/04/26 04:15:42;;;;;;;;;17.33;15.67;;;;;9.81;60.02;100107.31;2079996;26;2814990;-68
2024/04/26 04:16:54;;;;;;;;;16.67;16.67;;;;;9.79;60.33;100103.91;2104718;26;2828485;-67
2024/04/26 04:18:05;;;;;;;;;17.00;15.00;;;;;9.79;59.88;100109.16;2103611;26;2826248;-68
2024/04/26 04:19:17;;;;;;;;;19.33;16.33;;;;;9.81;59.93;100106.44;2078777;27;3576598;-67
2024/04/26 04:20:31;;;;;;;;;18.00;16.00;;;;;9.77;59.67;100101.34;2135910;26;1834686;-67
2024/04/26 04:21:42;;;;;;;;;18.50;15.00;;;;;9.77;60.52;100101.34;2103703;27;2824180;-67
2024/04/26 04:22:57;;;;;;;;;16.00;15.71;;;;;9.77;59.39;100101.34;2111872;26;1846030;-68
2024/04/26 04:24:10;;;;;;;;;22.80;17.20;;;;;9.73;60.10;100098.91;2125052;26;2841809;-67
2024/04/26 04:25:22;;;;;;;;;20.50;16.00;;;;;9.73;60.18;100098.91;2079427;26;2810675;-67
2024/04/26 04:26:36;;;;;;;;;16.80;16.00;;;;;9.72;60.05;100105.06;2101881;27;2811598;-68
2024/04/26 04:27:48;;;;;;;;;18.00;16.33;;;;;9.74;60.30;100108.47;2082695;26;2821357;-67
2024/04/26 04:28:59;;;;;;;;;17.50;17.50;;;;;9.72;60.66;100108.53;2104796;27;2831460;-67
2024/04/26 04:30:11;;;;;;;;;20.00;18.67;;;;;9.70;59.63;100109.50;2079783;26;2814763;-68
2024/04/26 04:31:22;;;;;;;;;18.50;15.00;;;;;9.70;60.14;100113.00;2102007;27;2825230;-67
2024/04/26 04:32:33;;;;;;;;;23.50;18.00;;;;;9.67;59.61;100107.88;2079507;27;2840791;-67
2024/04/26 04:33:48;;;;;;;;;17.57;15.00;;;;;9.63;60.07;100107.13;2112765;27;1831554;-67
2024/04/26 04:35:01;;;;;;;;;18.67;16.00;;;;;9.62;60.31;100109.81;2135777;27;1831508;-67
2024/04/26 04:36:15;;;;;;;;;21.83;18.83;;;;;9.56;60.55;100103.88;2111798;26;1840883;-68
2024/04/26 04:37:26;;;;;;;;;17.50;15.00;;;;;9.62;59.61;100113.28;2082316;26;2825269;-67
2024/04/26 04:38:41;;;;;;;;;20.14;16.71;;;;;9.61;60.51;100116.81;2110640;26;1829505;-67
2024/04/26 04:39:52;;;;;;;;;18.00;17.00;;;;;9.61;59.87;100113.34;2104911;27;2830429;-67
2024/04/26 04:41:04;;;;;;;;;23.00;19.67;;;;;9.57;60.74;100115.25;2081093;27;3586638;-67
2024/04/26 04:42:15;;;;;;;;;19.00;17.00;;;;;9.53;60.15;100117.13;2110741;26;2827278;-67
2024/04/26 04:43:30;;;;;;;;;17.86;17.86;;;;;9.56;60.93;100121.41;2108972;26;1835595;-68
2024/04/26 04:44:44;;;;;;;;;17.33;16.50;;;;;9.55;60.77;100127.56;2136232;26;1831502;-68
2024/04/26 04:45:56;;;;;;;;;18.33;17.33;;;;;9.54;60.19;100123.22;2081732;26;3556423;-68
2024/04/26 04:47:08;;;;;;;;;16.00;15.67;;;;;9.50;60.27;100124.28;2104554;26;3546019;-68
2024/04/26 04:48:21;;;;;;;;;16.00;15.00;;;;;9.49;60.21;100117.28;2105639;26;2806529;-68
2024/04/26 04:49:34;;;;;;;;;24.33;19.33;;;;;9.48;60.73;100120.84;2106635;26;3587708;-67
2024/04/26 04:50:46;;;;;;;;;18.00;15.33;;;;;9.49;60.68;100133.03;2106817;26;3550177;-68
2024/04/26 04:52:00;;;;;;;;;18.33;17.33;;;;;9.47;60.04;100125.25;2135111;26;1841423;-67
2024/04/26 04:53:13;;;;;;;;;21.20;18.60;;;;;9.42;60.72;100120.16;2101152;26;2832494;-68
2024/04/26 04:54:24;;;;;;;;;25.00;21.00;;;;;9.43;60.71;100121.03;2079251;26;3592906;-67
2024/04/26 04:55:36;;;;;;;;;23.33;19.00;;;;;9.40;60.78;100122.00;2104817;27;3581609;-67
2024/04/26 04:56:48;;;;;;;;;25.33;22.00;;;;;9.42;60.45;100127.19;2104566;26;3593906;-67
2024/04/26 04:58:02;;;;;;;;;23.33;22.67;;;;;9.44;60.74;100131.44;2106187;26;3574149;-67
2024/04/26 04:59:16;;;;;;;;;25.67;24.00;;;;;9.43;60.82;100131.53;2105054;26;3582487;-67
2024/04/26 05:00:28;;;;;;;;;21.33;20.33;;;;;9.36;60.32;100120.38;2106460;27;3569983;-67
2024/04/26 05:01:40;;;;;;;;;21.67;21.67;;;;;9.40;60.28;100127.25;2106536;27;3576215;-67
2024/04/26 05:02:52;;;;;;;;;23.00;22.00;;;;;9.39;61.01;100127.28;2104267;26;3584643;-68
2024/04/26 05:04:04;;;;;;;;;17.00;15.33;;;;;9.35;60.80;100121.31;2103726;26;2804407;-67
2024/04/26 05:05:16;;;;;;;;;21.00;18.50;;;;;9.37;61.01;100126.50;2109467;26;2829385;-67
2024/04/26 05:06:30;;;;;;;;;20.50;19.83;;;;;9.36;60.95;100125.63;2126291;26;2856412;-67
2024/04/26 05:07:42;;;;;;;;;24.00;22.00;;;;;9.36;60.42;100137.91;2104604;26;3587746;-67
2024/04/26 05:08:54;;;;;;;;;23.33;18.67;;;;;9.31;60.56;100130.22;2107817;26;3575215;-68
2024/04/26 05:10:06;;;;;;;;;22.33;18.00;;;;;9.33;60.89;100144.13;2107149;26;3572087;-68
2024/04/26 05:11:18;;;;;;;;;20.67;16.00;;;;;9.28;60.88;100135.56;2106474;26;2827352;-67
2024/04/26 05:12:29;;;;;;;;;18.00;18.00;;;;;9.28;60.45;100139.06;2106217;26;2827718;-67
2024/04/26 05:13:42;;;;;;;;;22.40;19.20;;;;;9.27;60.94;100133.84;2098182;26;2845025;-67
2024/04/26 05:14:55;;;;;;;;;24.50;20.00;;;;;9.30;61.29;100136.38;2098196;26;2852364;-67
2024/04/26 05:16:07;;;;;;;;;22.00;18.33;;;;;9.29;61.30;100132.03;2106140;26;2839866;-67
2024/04/26 05:17:19;;;;;;;;;22.33;20.67;;;;;9.31;61.37;100138.91;2107293;26;3591861;-68
2024/04/26 05:18:33;;;;;;;;;18.00;16.67;;;;;9.32;61.80;100132.78;2137495;26;1837785;-68
2024/04/26 05:19:47;;;;;;;;;11.83;8.83;;;;;9.32;61.63;100131.91;2111065;26;2754446;-68
2024/04/26 05:21:00;;;;;;;;;20.20;20.00;;;;;9.33;61.08;100136.25;2100983;26;2840839;-67
2024/04/26 05:22:14;;;;;;;;;23.33;20.67;;;;;9.34;61.77;100133.56;2111963;26;1840950;-67